Time;durP1;ratioP1;P1;durP2;ratioP2;P2;SDS_P1;SDS_P2;PMS_P1;PMS_P2;Temp;Humidity;BMP_temperature;BMP_pressure;BME280_temperature;BME280_humidity;BME280_pressure;Samples;Min_cycle;Max_cycle;Signal;HPM_P1;HPM_P2
2022/08/04 00:00:23;;;;;;;2.70;1.50;;;;;;;;;;5094118;28;20119;-73
2022/08/04 00:02:59;;;;;;;2.92;1.50;;;;;;;;;;5098161;28;20043;-73
2022/08/04 00:05:28;;;;;;;1.55;1.38;;;;;;;;;;5102468;28;20066;-73
2022/08/04 00:07:57;;;;;;;3.97;1.70;;;;;;;;;;5093864;28;20078;-72
2022/08/04 00:10:25;;;;;;;2.65;1.50;;;;;;;;;;5100455;28;20036;-72
2022/08/04 00:12:54;;;;;;;1.90;1.58;;;;;;;;;;5099580;28;20040;-73
2022/08/04 00:15:20;;;;;;;3.38;1.65;;;;;;;;;;5098785;28;20040;-73
2022/08/04 00:18:07;;;;;;;1.75;1.55;;;;;;;;;;5107162;28;20050;-73
2022/08/04 00:20:34;;;;;;;3.25;1.67;;;;;;;;;;5104692;28;20032;-73
2022/08/04 00:23:01;;;;;;;1.50;1.38;;;;;;;;;;5094252;28;20047;-73
2022/08/04 00:25:27;;;;;;;2.25;1.27;;;;;;;;;;5098256;28;20048;-73
2022/08/04 00:27:54;;;;;;;3.35;1.52;;;;;;;;;;5098047;28;20043;-73
2022/08/04 00:30:20;;;;;;;3.53;1.35;;;;;;;;;;5098235;28;20115;-73
2022/08/04 00:32:47;;;;;;;4.82;1.65;;;;;;;;;;5098257;28;20131;-73
2022/08/04 00:35:14;;;;;;;2.42;1.50;;;;;;;;;;5098030;28;20081;-73
2022/08/04 00:37:40;;;;;;;1.70;1.60;;;;;;;;;;5097734;28;20044;-73
2022/08/04 00:40:13;;;;;;;4.20;1.50;;;;;;;;;;5098076;28;20036;-73
2022/08/04 00:42:39;;;;;;;2.38;1.50;;;;;;;;;;5098382;28;20052;-73
2022/08/04 00:45:08;;;;;;;1.52;1.42;;;;;;;;;;5098259;28;20123;-73
2022/08/04 00:47:39;;;;;;;6.18;1.58;;;;;;;;;;5097657;28;20071;-73
2022/08/04 00:50:18;;;;;;;1.50;1.40;;;;;;;;;;5097987;28;20107;-72
2022/08/04 00:52:54;;;;;;;2.92;1.80;;;;;;;;;;5097840;28;20054;-73
2022/08/04 00:55:26;;;;;;;6.70;1.75;;;;;;;;;;5097177;28;20049;-73
2022/08/04 00:58:02;;;;;;;1.65;1.52;;;;;;;;;;5097616;28;20051;-73
2022/08/04 01:00:32;;;;;;;3.42;1.73;;;;;;;;;;5098079;28;20044;-73
2022/08/04 01:02:59;;;;;;;1.70;1.50;;;;;;;;;;5098267;28;20048;-72
2022/08/04 01:05:25;;;;;;;1.60;1.50;;;;;;;;;;5097367;28;20433;-73
2022/08/04 01:07:54;;;;;;;1.70;1.60;;;;;;;;;;5097685;28;20042;-72
2022/08/04 01:10:38;;;;;;;1.52;1.42;;;;;;;;;;5097438;28;20038;-73
2022/08/04 01:13:17;;;;;;;2.05;1.67;;;;;;;;;;5108710;28;20483;-73
2022/08/04 01:15:53;;;;;;;1.63;1.50;;;;;;;;;;5115852;27;20486;-72
2022/08/04 01:18:38;;;;;;;2.85;1.50;;;;;;;;;;5115479;28;20040;-73
2022/08/04 01:21:23;;;;;;;3.03;1.83;;;;;;;;;;5096915;28;20123;-73
2022/08/04 01:24:07;;;;;;;3.88;1.70;;;;;;;;;;5114953;28;20529;-73
2022/08/04 01:26:48;;;;;;;2.53;1.52;;;;;;;;;;5115176;28;20169;-73
2022/08/04 01:29:15;;;;;;;1.77;1.67;;;;;;;;;;5117293;28;20066;-73
2022/08/04 01:31:48;;;;;;;3.95;1.60;;;;;;;;;;5102036;28;20058;-73
2022/08/04 01:34:15;;;;;;;3.78;1.50;;;;;;;;;;5097148;28;20036;-73
2022/08/04 01:36:54;;;;;;;1.92;1.77;;;;;;;;;;5096964;28;20040;-73
2022/08/04 01:42:05;;;;;;;1.67;1.58;;;;;;;;;;5096713;28;20558;-73
2022/08/04 01:44:32;;;;;;;2.55;1.80;;;;;;;;;;5097660;28;20120;-73
2022/08/04 01:47:00;;;;;;;2.13;1.70;;;;;;;;;;5097539;28;20036;-72
2022/08/04 01:49:29;;;;;;;2.78;1.52;;;;;;;;;;5096354;28;20154;-73
2022/08/04 01:51:55;;;;;;;2.40;1.60;;;;;;;;;;5096620;28;20529;-73
2022/08/04 01:54:22;;;;;;;2.40;2.03;;;;;;;;;;5102438;28;20040;-73
2022/08/04 01:56:53;;;;;;;1.98;1.50;;;;;;;;;;5100857;28;20036;-73
2022/08/04 01:59:19;;;;;;;4.05;1.85;;;;;;;;;;5096906;28;20481;-73
2022/08/04 02:01:46;;;;;;;2.35;1.65;;;;;;;;;;5096158;28;20048;-73
2022/08/04 02:04:16;;;;;;;3.20;1.50;;;;;;;;;;5096239;28;20120;-72
2022/08/04 02:07:01;;;;;;;3.63;1.63;;;;;;;;;;5096011;28;20062;-72
2022/08/04 02:09:42;;;;;;;1.83;1.73;;;;;;;;;;5095512;28;20039;-72
2022/08/04 02:12:31;;;;;;;5.28;1.80;;;;;;;;;;5105187;28;20058;-72
2022/08/04 02:15:09;;;;;;;2.40;1.70;;;;;;;;;;5087273;28;20044;-72
2022/08/04 02:17:35;;;;;;;1.70;1.60;;;;;;;;;;5114616;28;20047;-72
2022/08/04 02:20:11;;;;;;;2.00;1.67;;;;;;;;;;5112278;28;20035;-72
2022/08/04 02:22:51;;;;;;;1.70;1.58;;;;;;;;;;5098434;28;20055;-72
2022/08/04 02:25:20;;;;;;;1.70;1.60;;;;;;;;;;5112242;28;20122;-73
2022/08/04 02:27:49;;;;;;;2.33;1.58;;;;;;;;;;5115768;28;20498;-73
2022/08/04 02:30:15;;;;;;;2.38;1.48;;;;;;;;;;5102331;27;20540;-73
2022/08/04 02:32:43;;;;;;;1.88;1.73;;;;;;;;;;5113438;28;20050;-73
2022/08/04 02:35:15;;;;;;;1.90;1.70;;;;;;;;;;5116175;28;20463;-72
2022/08/04 02:37:47;;;;;;;1.75;1.65;;;;;;;;;;5115622;28;20028;-72
2022/08/04 02:40:16;;;;;;;2.08;1.60;;;;;;;;;;5115080;28;20032;-73
2022/08/04 02:42:43;;;;;;;3.70;1.88;;;;;;;;;;5113911;28;20528;-73
2022/08/04 02:45:11;;;;;;;2.03;1.83;;;;;;;;;;5114428;28;20050;-73
2022/08/04 02:47:37;;;;;;;2.17;1.80;;;;;;;;;;5115070;28;20042;-73
2022/08/04 02:50:03;;;;;;;1.63;1.52;;;;;;;;;;5114289;28;20072;-73
2022/08/04 02:52:30;;;;;;;4.22;1.80;;;;;;;;;;5116154;28;20062;-73
2022/08/04 02:54:59;;;;;;;2.10;1.75;;;;;;;;;;5113378;28;20036;-73
2022/08/04 02:57:27;;;;;;;1.73;1.63;;;;;;;;;;5115115;28;20067;-73
2022/08/04 03:00:06;;;;;;;1.83;1.67;;;;;;;;;;5112155;28;20039;-73
2022/08/04 03:02:44;;;;;;;3.22;1.73;;;;;;;;;;5094823;28;20048;-73
2022/08/04 03:05:17;;;;;;;1.90;1.77;;;;;;;;;;5095294;28;20044;-72
2022/08/04 03:08:02;;;;;;;1.75;1.58;;;;;;;;;;5095483;28;20068;-72
2022/08/04 03:10:31;;;;;;;3.17;1.88;;;;;;;;;;5095254;28;20122;-73
2022/08/04 03:13:16;;;;;;;2.10;1.70;;;;;;;;;;5096001;28;20077;-73
2022/08/04 03:16:03;;;;;;;1.90;1.70;;;;;;;;;;5113318;28;20501;-73
2022/08/04 03:18:54;;;;;;;5.88;1.70;;;;;;;;;;5094972;28;20040;-73
2022/08/04 03:21:20;;;;;;;;;;;;;;;;;;5102745;28;20051;-72
2022/08/04 03:24:00;;;;;;;2.58;2.00;;;;;;;;;;5107085;28;19914;-73
2022/08/04 03:26:44;;;;;;;2.55;1.83;;;;;;;;;;5095445;28;20039;-72
2022/08/04 03:29:10;;;;;;;2.25;1.60;;;;;;;;;;5104033;28;20036;-73
2022/08/04 03:31:55;;;;;;;2.63;1.45;;;;;;;;;;5113158;28;20062;-73
2022/08/04 03:34:33;;;;;;;3.42;1.80;;;;;;;;;;5109541;28;20043;-73
2022/08/04 03:37:11;;;;;;;3.63;1.50;;;;;;;;;;5094413;28;20044;-73
2022/08/04 03:39:49;;;;;;;3.45;1.90;;;;;;;;;;5094550;28;20051;-73
2022/08/04 03:42:30;;;;;;;2.08;1.98;;;;;;;;;;5094977;28;20048;-73
2022/08/04 03:44:56;;;;;;;3.08;1.90;;;;;;;;;;5095455;28;20131;-73
2022/08/04 03:47:24;;;;;;;5.22;2.40;;;;;;;;;;5094635;28;20081;-73
2022/08/04 03:49:53;;;;;;;2.28;1.85;;;;;;;;;;5111155;28;20119;-73
2022/08/04 03:55:49;;;;;;;2.78;1.90;;;;;;;;;;5108136;28;20560;-72
2022/08/04 03:58:15;;;;;;;4.53;1.70;;;;;;;;;;5073085;28;20159;-73
2022/08/04 04:01:00;;;;;;;3.95;1.70;;;;;;;;;;5098566;28;20036;-72
2022/08/04 04:03:29;;;;;;;2.10;1.90;;;;;;;;;;5114174;28;20081;-73
2022/08/04 04:06:14;;;;;;;7.18;2.00;;;;;;;;;;5118660;28;20063;-73
2022/08/04 04:08:40;;;;;;;3.60;2.05;;;;;;;;;;5118709;28;20580;-73
2022/08/04 04:11:29;;;;;;;2.13;1.90;;;;;;;;;;5116587;28;20055;-73
2022/08/04 04:14:04;;;;;;;3.47;2.13;;;;;;;;;;5087908;28;20533;-73
2022/08/04 04:16:49;;;;;;;5.10;1.95;;;;;;;;;;5118340;28;20040;-73
2022/08/04 04:19:27;;;;;;;2.38;2.00;;;;;;;;;;5101581;28;20040;-73
2022/08/04 04:21:58;;;;;;;4.68;1.90;;;;;;;;;;5105374;28;20043;-73
2022/08/04 04:24:33;;;;;;;4.05;1.80;;;;;;;;;;5118182;28;20085;-73
2022/08/04 04:26:59;;;;;;;2.83;2.10;;;;;;;;;;5100926;28;20043;-73
2022/08/04 04:29:44;;;;;;;1.95;1.75;;;;;;;;;;5111023;28;20039;-72
2022/08/04 04:32:23;;;;;;;2.03;1.83;;;;;;;;;;5097766;28;20073;-73
2022/08/04 04:34:52;;;;;;;4.80;1.90;;;;;;;;;;5098353;28;20398;-73
2022/08/04 04:37:38;;;;;;;43.03;3.53;;;;;;;;;;5098879;28;20161;-73
2022/08/04 04:40:04;;;;;;;7.68;2.25;;;;;;;;;;5106174;28;20066;-73
2022/08/04 04:42:49;;;;;;;2.17;1.98;;;;;;;;;;5116185;28;20525;-73
2022/08/04 04:45:34;;;;;;;4.68;1.83;;;;;;;;;;5118423;28;20044;-73
2022/08/04 04:48:07;;;;;;;5.30;1.85;;;;;;;;;;5107408;28;20040;-73
2022/08/04 04:50:39;;;;;;;4.70;1.95;;;;;;;;;;5098899;28;20036;-73
2022/08/04 04:53:24;;;;;;;5.78;2.10;;;;;;;;;;5097212;28;20043;-73
2022/08/04 04:55:53;;;;;;;4.47;1.95;;;;;;;;;;5097028;28;20141;-72
2022/08/04 04:58:20;;;;;;;2.80;2.08;;;;;;;;;;5097431;28;20069;-73
2022/08/04 05:00:46;;;;;;;3.00;1.70;;;;;;;;;;5105403;28;20047;-73
2022/08/04 05:03:12;;;;;;;5.63;1.88;;;;;;;;;;5117893;28;20639;-73
2022/08/04 05:05:56;;;;;;;2.63;1.77;;;;;;;;;;5117285;28;20043;-73
2022/08/04 05:08:29;;;;;;;1.80;1.70;;;;;;;;;;5116997;28;20047;-73
2022/08/04 05:11:13;;;;;;;3.20;2.10;;;;;;;;;;5116843;28;20028;-73
2022/08/04 05:13:40;;;;;;;1.65;1.55;;;;;;;;;;5115037;28;20036;-73
2022/08/04 05:16:18;;;;;;;3.58;1.67;;;;;;;;;;5114335;28;20027;-73
2022/08/04 05:18:47;;;;;;;2.40;1.92;;;;;;;;;;5080166;28;20045;-73
2022/08/04 05:21:13;;;;;;;5.18;2.10;;;;;;;;;;5098174;28;20111;-73
2022/08/04 05:23:43;;;;;;;5.63;2.00;;;;;;;;;;5117335;28;20047;-72
2022/08/04 05:26:15;;;;;;;1.87;1.67;;;;;;;;;;5112538;27;20040;-73
2022/08/04 05:28:57;;;;;;;1.90;1.77;;;;;;;;;;5107369;28;20273;-73
2022/08/04 05:31:29;;;;;;;3.92;1.63;;;;;;;;;;5107867;28;20105;-72
2022/08/04 05:33:57;;;;;;;3.78;2.08;;;;;;;;;;5117022;28;20305;-73
2022/08/04 05:36:28;;;;;;;1.80;1.70;;;;;;;;;;5110509;28;20042;-73
2022/08/04 05:38:58;;;;;;;2.72;1.88;;;;;;;;;;5096738;28;20474;-72
2022/08/04 05:41:25;;;;;;;3.28;1.90;;;;;;;;;;5096042;28;20063;-73
2022/08/04 05:43:51;;;;;;;3.50;1.77;;;;;;;;;;5097469;28;20068;-73
2022/08/04 05:46:18;;;;;;;2.55;1.80;;;;;;;;;;5100756;28;20067;-73
2022/08/04 05:48:44;;;;;;;1.73;1.63;;;;;;;;;;5116484;28;20090;-73
2022/08/04 05:51:11;;;;;;;2.15;1.80;;;;;;;;;;5114828;28;20040;-73
2022/08/04 05:53:37;;;;;;;2.40;1.85;;;;;;;;;;5116395;28;20059;-73
2022/08/04 05:56:05;;;;;;;6.50;1.63;;;;;;;;;;5116020;28;20538;-73
2022/08/04 05:58:31;;;;;;;3.60;1.65;;;;;;;;;;5116888;28;20119;-73
2022/08/04 06:01:01;;;;;;;9.52;2.10;;;;;;;;;;5115885;28;20035;-73
2022/08/04 06:03:30;;;;;;;3.75;1.98;;;;;;;;;;5097815;28;20036;-73
2022/08/04 06:05:57;;;;;;;2.22;1.85;;;;;;;;;;5097031;28;20043;-74
2022/08/04 06:08:23;;;;;;;1.52;1.42;;;;;;;;;;5095940;28;20127;-73
2022/08/04 06:10:50;;;;;;;1.60;1.50;;;;;;;;;;5095842;28;20043;-73
2022/08/04 06:13:18;;;;;;;3.88;1.73;;;;;;;;;;5096916;28;20141;-73
2022/08/04 06:15:47;;;;;;;2.65;1.92;;;;;;;;;;5096357;28;20074;-73
2022/08/04 06:18:13;;;;;;;5.22;2.10;;;;;;;;;;5096654;28;20123;-73
2022/08/04 06:20:42;;;;;;;1.90;1.50;;;;;;;;;;5098497;28;20044;-74
2022/08/04 06:23:10;;;;;;;5.47;1.63;;;;;;;;;;5097592;28;20414;-74
2022/08/04 06:25:41;;;;;;;1.75;1.58;;;;;;;;;;5094872;28;20048;-74
2022/08/04 06:28:08;;;;;;;2.00;1.80;;;;;;;;;;5097022;28;20482;-73
2022/08/04 06:30:35;;;;;;;2.75;1.67;;;;;;;;;;5102586;28;20119;-74
2022/08/04 06:33:12;;;;;;;4.82;1.80;;;;;;;;;;5113953;28;20066;-74
2022/08/04 06:35:39;;;;;;;3.20;1.90;;;;;;;;;;5097574;28;20486;-74
2022/08/04 06:38:05;;;;;;;4.03;1.60;;;;;;;;;;5095436;28;20052;-74
2022/08/04 06:40:32;;;;;;;5.18;2.10;;;;;;;;;;5094397;28;20055;-74
2022/08/04 06:43:03;;;;;;;6.55;1.88;;;;;;;;;;5094973;28;20073;-73
2022/08/04 06:45:29;;;;;;;2.20;1.70;;;;;;;;;;5101761;28;20051;-73
2022/08/04 06:47:56;;;;;;;4.18;1.63;;;;;;;;;;5094046;28;20032;-74
2022/08/04 06:50:22;;;;;;;2.95;1.60;;;;;;;;;;5094669;28;20121;-73
2022/08/04 06:52:48;;;;;;;2.53;1.70;;;;;;;;;;5094016;28;20043;-73
2022/08/04 06:55:14;;;;;;;3.88;1.80;;;;;;;;;;5093228;28;20088;-72
2022/08/04 06:57:41;;;;;;;2.45;1.85;;;;;;;;;;5093658;28;20040;-72
2022/08/04 07:00:13;;;;;;;3.42;1.80;;;;;;;;;;5101794;28;20071;-72
2022/08/04 07:02:44;;;;;;;3.13;2.15;;;;;;;;;;5092993;28;20089;-72
2022/08/04 07:05:10;;;;;;;3.35;2.22;;;;;;;;;;5095375;28;20044;-72
2022/08/04 07:07:36;;;;;;;3.63;1.90;;;;;;;;;;5094059;28;20112;-72
2022/08/04 07:10:04;;;;;;;4.50;2.20;;;;;;;;;;5092677;28;20040;-70
2022/08/04 07:12:31;;;;;;;3.70;2.03;;;;;;;;;;5098484;28;20085;-70
2022/08/04 07:14:58;;;;;;;4.45;1.98;;;;;;;;;;5100845;28;20031;-70
2022/08/04 07:17:25;;;;;;;3.70;2.13;;;;;;;;;;5100838;28;20118;-70
2022/08/04 07:19:54;;;;;;;3.05;1.67;;;;;;;;;;5099601;28;20075;-70
2022/08/04 07:22:20;;;;;;;2.97;1.65;;;;;;;;;;5100854;28;20051;-70
2022/08/04 07:24:47;;;;;;;5.40;2.38;;;;;;;;;;5097353;28;20472;-70
2022/08/04 07:27:13;;;;;;;2.20;1.80;;;;;;;;;;5102818;28;20062;-72
2022/08/04 07:29:39;;;;;;;2.85;1.95;;;;;;;;;;5095073;28;20506;-72
2022/08/04 07:32:06;;;;;;;3.42;2.22;;;;;;;;;;5095648;28;20044;-74
2022/08/04 07:34:32;;;;;;;4.85;1.90;;;;;;;;;;5093150;28;20082;-73
2022/08/04 07:36:59;;;;;;;3.00;2.10;;;;;;;;;;5097033;28;20159;-72
2022/08/04 07:39:27;;;;;;;2.08;1.88;;;;;;;;;;5094710;28;20512;-73
2022/08/04 07:41:54;;;;;;;2.40;2.08;;;;;;;;;;5111732;28;20047;-74
2022/08/04 07:44:22;;;;;;;4.47;2.03;;;;;;;;;;5112646;28;20116;-73
2022/08/04 07:46:48;;;;;;;7.88;2.05;;;;;;;;;;5113007;28;20097;-73
2022/08/04 07:49:14;;;;;;;6.72;2.40;;;;;;;;;;5113213;28;20066;-73
2022/08/04 07:51:41;;;;;;;6.45;2.30;;;;;;;;;;5108005;28;20536;-73
2022/08/04 07:54:09;;;;;;;5.82;2.10;;;;;;;;;;5094068;28;20036;-73
2022/08/04 07:56:38;;;;;;;9.68;2.55;;;;;;;;;;5100846;28;20502;-73
2022/08/04 07:59:05;;;;;;;6.65;2.25;;;;;;;;;;5113367;28;20047;-73
2022/08/04 08:01:31;;;;;;;11.50;3.95;;;;;;;;;;5110757;28;20371;-73
2022/08/04 08:03:59;;;;;;;7.55;2.15;;;;;;;;;;5106225;28;20130;-73
2022/08/04 08:06:28;;;;;;;10.43;2.40;;;;;;;;;;5107016;28;20043;-73
2022/08/04 08:08:55;;;;;;;10.75;2.30;;;;;;;;;;5094004;28;20127;-73
2022/08/04 08:11:21;;;;;;;18.13;4.43;;;;;;;;;;5086718;28;20039;-73
2022/08/04 08:13:48;;;;;;;10.63;2.85;;;;;;;;;;5096123;28;20032;-73
2022/08/04 08:16:15;;;;;;;7.82;2.30;;;;;;;;;;5106606;28;20047;-73
2022/08/04 08:18:41;;;;;;;2.75;2.50;;;;;;;;;;5095324;28;20115;-71
2022/08/04 08:21:08;;;;;;;3.42;2.00;;;;;;;;;;5099452;28;20043;-73
2022/08/04 08:23:35;;;;;;;5.25;2.03;;;;;;;;;;5107702;28;20040;-73
2022/08/04 08:26:01;;;;;;;5.53;1.80;;;;;;;;;;5114113;28;20044;-73
2022/08/04 08:28:27;;;;;;;4.00;2.03;;;;;;;;;;5105734;28;20036;-73
2022/08/04 08:30:54;;;;;;;2.72;1.73;;;;;;;;;;5093139;28;20113;-73
2022/08/04 08:33:20;;;;;;;3.67;1.70;;;;;;;;;;5103228;28;20124;-73
2022/08/04 08:35:48;;;;;;;2.60;1.88;;;;;;;;;;5100754;28;20052;-73
2022/08/04 08:38:15;;;;;;;2.88;1.70;;;;;;;;;;5098417;28;20036;-73
2022/08/04 08:40:52;;;;;;;3.47;1.60;;;;;;;;;;5092873;28;20048;-73
2022/08/04 08:43:21;;;;;;;2.95;1.92;;;;;;;;;;5093801;28;20047;-73
2022/08/04 08:45:56;;;;;;;2.00;1.40;;;;;;;;;;5116982;28;20051;-73
2022/08/04 08:48:35;;;;;;;3.55;1.90;;;;;;;;;;5111701;28;20043;-74
2022/08/04 08:51:04;;;;;;;1.92;1.50;;;;;;;;;;5096941;28;20044;-74
2022/08/04 08:53:49;;;;;;;3.25;1.40;;;;;;;;;;5102815;28;20505;-74
2022/08/04 08:56:34;;;;;;;1.92;1.73;;;;;;;;;;5117834;28;20101;-74
2022/08/04 08:59:22;;;;;;;1.73;1.45;;;;;;;;;;5116782;28;20039;-74
2022/08/04 09:01:58;;;;;;;2.13;1.67;;;;;;;;;;5073757;28;20047;-74
2022/08/04 09:04:38;;;;;;;4.22;1.50;;;;;;;;;;5097020;28;20502;-74
2022/08/04 09:07:17;;;;;;;1.77;1.67;;;;;;;;;;5097897;28;20040;-74
2022/08/04 09:09:46;;;;;;;1.80;1.70;;;;;;;;;;5105714;28;20040;-74
2022/08/04 09:12:12;;;;;;;1.70;1.60;;;;;;;;;;5097035;28;20040;-74
2022/08/04 09:14:42;;;;;;;2.58;1.40;;;;;;;;;;5097931;28;20055;-74
2022/08/04 09:17:17;;;;;;;2.95;1.73;;;;;;;;;;5105790;28;20092;-73
2022/08/04 09:19:57;;;;;;;2.97;1.83;;;;;;;;;;5112177;28;20045;-73
2022/08/04 09:22:35;;;;;;;3.45;1.60;;;;;;;;;;5108252;28;20124;-74
2022/08/04 09:25:06;;;;;;;1.50;1.40;;;;;;;;;;5095228;28;20047;-73
2022/08/04 09:27:44;;;;;;;1.55;1.45;;;;;;;;;;5096410;28;20110;-73
2022/08/04 09:30:12;;;;;;;2.35;1.52;;;;;;;;;;5096897;28;20048;-73
2022/08/04 09:32:40;;;;;;;3.42;1.70;;;;;;;;;;5108957;28;20529;-73
2022/08/04 09:35:25;;;;;;;2.10;1.90;;;;;;;;;;5108295;28;20497;-73
2022/08/04 09:38:10;;;;;;;2.70;2.10;;;;;;;;;;5091926;28;20119;-73
2022/08/04 09:40:39;;;;;;;4.65;2.65;;;;;;;;;;5106486;28;20060;-73
2022/08/04 09:43:20;;;;;;;2.75;2.05;;;;;;;;;;5093939;28;20547;-73
2022/08/04 09:45:50;;;;;;;3.88;2.20;;;;;;;;;;5096738;28;20119;-73
2022/08/04 09:48:35;;;;;;;2.47;2.17;;;;;;;;;;5099609;28;20044;-73
2022/08/04 09:51:04;;;;;;;2.50;2.30;;;;;;;;;;5096691;28;20039;-73
2022/08/04 09:53:45;;;;;;;2.93;2.10;;;;;;;;;;5096438;28;20043;-73
2022/08/04 09:56:30;;;;;;;2.60;2.40;;;;;;;;;;5096687;28;20788;-73
2022/08/04 09:59:06;;;;;;;2.88;2.47;;;;;;;;;;5108981;27;20051;-73
2022/08/04 10:01:33;;;;;;;4.00;2.55;;;;;;;;;;5100762;28;20082;-73
2022/08/04 10:04:00;;;;;;;5.05;2.60;;;;;;;;;;5098877;28;20056;-73
2022/08/04 10:06:45;;;;;;;5.00;2.25;;;;;;;;;;5111007;28;20039;-73
2022/08/04 10:09:30;;;;;;;3.20;2.83;;;;;;;;;;5100265;28;20059;-73
2022/08/04 10:12:02;;;;;;;5.40;3.15;;;;;;;;;;5107750;28;20078;-73
2022/08/04 10:14:36;;;;;;;7.38;3.00;;;;;;;;;;5116724;28;20035;-73
2022/08/04 10:17:15;;;;;;;5.60;3.30;;;;;;;;;;5114647;28;20071;-71
2022/08/04 10:19:41;;;;;;;5.85;3.60;;;;;;;;;;5091290;28;20044;-73
2022/08/04 10:22:13;;;;;;;4.53;3.33;;;;;;;;;;5099993;28;20160;-73
2022/08/04 10:24:39;;;;;;;5.53;3.42;;;;;;;;;;5107915;28;20085;-73
2022/08/04 10:27:09;;;;;;;8.48;3.55;;;;;;;;;;5095669;28;20039;-73
2022/08/04 10:29:42;;;;;;;7.25;3.35;;;;;;;;;;5096034;28;20043;-73
2022/08/04 10:32:08;;;;;;;4.30;2.95;;;;;;;;;;5089504;28;20127;-73
2022/08/04 10:34:43;;;;;;;6.40;3.33;;;;;;;;;;5095731;28;20491;-73
2022/08/04 10:37:19;;;;;;;7.15;3.00;;;;;;;;;;5088697;28;20069;-74
2022/08/04 10:42:41;;;;;;;8.00;3.20;;;;;;;;;;5094469;28;20105;-74
2022/08/04 10:45:18;;;;;;;5.72;2.85;;;;;;;;;;5094841;28;20449;-73
2022/08/04 10:48:04;;;;;;;3.85;2.78;;;;;;;;;;5093411;28;20097;-73
2022/08/04 10:50:34;;;;;;;6.00;2.60;;;;;;;;;;5093565;28;20043;-73
2022/08/04 10:53:06;;;;;;;4.65;2.63;;;;;;;;;;5099068;28;20479;-73
2022/08/04 10:55:40;;;;;;;4.60;3.13;;;;;;;;;;5098718;28;20522;-73
2022/08/04 10:58:09;;;;;;;3.78;2.72;;;;;;;;;;5098521;28;20088;-73
2022/08/04 11:00:36;;;;;;;3.85;2.90;;;;;;;;;;5092516;28;20654;-73
2022/08/04 11:03:21;;;;;;;4.55;2.75;;;;;;;;;;5093433;28;20040;-73
2022/08/04 11:05:50;;;;;;;5.88;2.63;;;;;;;;;;5088530;28;20074;-72
2022/08/04 11:08:20;;;;;;;4.43;2.58;;;;;;;;;;5088911;28;20040;-74
2022/08/04 11:10:48;;;;;;;6.80;2.80;;;;;;;;;;5094736;28;20097;-73
2022/08/04 11:13:16;;;;;;;3.25;2.50;;;;;;;;;;5089946;28;20036;-73
2022/08/04 11:15:54;;;;;;;4.43;2.58;;;;;;;;;;5097238;28;20040;-74
2022/08/04 11:18:26;;;;;;;6.28;2.85;;;;;;;;;;5095013;28;20075;-73
2022/08/04 11:21:04;;;;;;;4.90;2.78;;;;;;;;;;5094030;28;20036;-73
2022/08/04 11:23:34;;;;;;;3.83;3.00;;;;;;;;;;5093535;28;20127;-73
2022/08/04 11:26:12;;;;;;;12.63;3.10;;;;;;;;;;5093890;28;20051;-73
2022/08/04 11:28:57;;;;;;;7.50;3.53;;;;;;;;;;5093678;28;20047;-73
2022/08/04 11:31:30;;;;;;;5.72;3.35;;;;;;;;;;5096803;28;20552;-73
2022/08/04 11:34:02;;;;;;;5.88;3.80;;;;;;;;;;5093987;28;20063;-73
2022/08/04 11:36:28;;;;;;;8.00;4.30;;;;;;;;;;5094213;28;20052;-74
2022/08/04 11:39:10;;;;;;;7.93;4.10;;;;;;;;;;5098591;28;20062;-73
2022/08/04 11:41:38;;;;;;;6.05;3.72;;;;;;;;;;5099228;28;20113;-74
2022/08/04 11:44:06;;;;;;;4.00;3.70;;;;;;;;;;5098471;28;20040;-74
2022/08/04 11:46:32;;;;;;;5.10;4.15;;;;;;;;;;5094059;28;20036;-73
2022/08/04 11:49:05;;;;;;;4.72;3.90;;;;;;;;;;5098770;28;20048;-72
2022/08/04 11:51:32;;;;;;;4.22;3.83;;;;;;;;;;5092346;28;20091;-73
2022/08/04 11:54:00;;;;;;;8.88;4.25;;;;;;;;;;5093764;28;20149;-73
2022/08/04 11:56:26;;;;;;;5.72;3.85;;;;;;;;;;5093267;28;20109;-73
2022/08/04 11:58:53;;;;;;;6.25;4.13;;;;;;;;;;5093389;28;20119;-73
2022/08/04 12:01:34;;;;;;;5.20;3.70;;;;;;;;;;5088711;28;20123;-73
2022/08/04 12:04:19;;;;;;;6.18;3.67;;;;;;;;;;5093564;28;20044;-73
2022/08/04 12:06:49;;;;;;;7.28;3.47;;;;;;;;;;5094181;28;20123;-73
2022/08/04 12:09:15;;;;;;;7.95;4.20;;;;;;;;;;5093222;28;20487;-73
2022/08/04 12:11:47;;;;;;;5.60;4.70;;;;;;;;;;5094251;28;20045;-73
2022/08/04 12:14:33;;;;;;;6.65;4.38;;;;;;;;;;5093291;28;20050;-73
2022/08/04 12:17:03;;;;;;;6.22;3.90;;;;;;;;;;5062265;28;20043;-73
2022/08/04 12:19:39;;;;;;;8.38;3.78;;;;;;;;;;5096979;28;20552;-73
2022/08/04 12:22:18;;;;;;;6.35;3.72;;;;;;;;;;5098147;28;20047;-73
2022/08/04 12:24:45;;;;;;;5.13;3.70;;;;;;;;;;5098822;28;20054;-73
2022/08/04 12:27:24;;;;;;;6.82;3.67;;;;;;;;;;5098276;28;20068;-73
2022/08/04 12:29:51;;;;;;;6.57;4.10;;;;;;;;;;5098212;28;20098;-73
2022/08/04 12:32:22;;;;;;;7.28;3.97;;;;;;;;;;5099688;28;20043;-75
2022/08/04 12:34:54;;;;;;;5.95;3.75;;;;;;;;;;5116258;28;20097;-74
2022/08/04 12:37:39;;;;;;;5.32;3.70;;;;;;;;;;5104784;28;20071;-73
2022/08/04 12:40:11;;;;;;;5.90;4.15;;;;;;;;;;5098401;28;20490;-73
2022/08/04 12:42:43;;;;;;;8.82;3.78;;;;;;;;;;5097855;28;20105;-73
2022/08/04 12:45:10;;;;;;;4.45;3.22;;;;;;;;;;5098158;28;20036;-74
2022/08/04 12:47:37;;;;;;;4.38;3.17;;;;;;;;;;5095316;28;20047;-73
2022/08/04 12:50:04;;;;;;;5.38;3.40;;;;;;;;;;5098708;28;20032;-73
2022/08/04 12:52:33;;;;;;;8.88;3.60;;;;;;;;;;5099035;28;20092;-75
2022/08/04 12:54:59;;;;;;;6.80;3.50;;;;;;;;;;5096614;28;20048;-74
2022/08/04 12:57:26;;;;;;;7.72;3.45;;;;;;;;;;5095343;28;20119;-73
2022/08/04 12:59:53;;;;;;;6.60;3.25;;;;;;;;;;5094917;28;20543;-73
2022/08/04 13:02:25;;;;;;;6.85;3.40;;;;;;;;;;5094699;28;20052;-73
2022/08/04 13:04:52;;;;;;;5.40;3.50;;;;;;;;;;5097451;28;20043;-73
2022/08/04 13:07:19;;;;;;;6.75;3.63;;;;;;;;;;5095187;28;20082;-74
2022/08/04 13:09:46;;;;;;;15.23;4.03;;;;;;;;;;5097092;28;20036;-75
2022/08/04 13:12:18;;;;;;;10.40;4.35;;;;;;;;;;5096873;28;20070;-73
2022/08/04 13:14:45;;;;;;;21.02;4.25;;;;;;;;;;5092127;28;20044;-73
2022/08/04 13:17:12;;;;;;;10.43;4.15;;;;;;;;;;5101650;28;20517;-73
2022/08/04 13:19:38;;;;;;;6.38;3.75;;;;;;;;;;5079768;28;20058;-73
2022/08/04 13:22:05;;;;;;;9.93;4.68;;;;;;;;;;5100589;28;20087;-73
2022/08/04 13:24:32;;;;;;;9.15;4.10;;;;;;;;;;5094330;28;20044;-73
2022/08/04 13:26:59;;;;;;;8.93;4.60;;;;;;;;;;5095758;28;20039;-73
2022/08/04 13:29:31;;;;;;;9.20;3.97;;;;;;;;;;5102157;28;20520;-74
2022/08/04 13:31:58;;;;;;;15.70;4.35;;;;;;;;;;5095581;28;20056;-74
2022/08/04 13:34:24;;;;;;;20.80;4.63;;;;;;;;;;5096802;28;20044;-73
2022/08/04 13:36:54;;;;;;;6.55;4.22;;;;;;;;;;5095317;28;20517;-73
2022/08/04 13:39:22;;;;;;;7.78;4.07;;;;;;;;;;5095675;28;20047;-73
2022/08/04 13:41:53;;;;;;;10.60;3.65;;;;;;;;;;5095057;28;20066;-74
2022/08/04 13:44:25;;;;;;;6.75;3.92;;;;;;;;;;5095053;28;20075;-74
2022/08/04 13:46:56;;;;;;;6.43;4.10;;;;;;;;;;5100294;28;20052;-72
2022/08/04 13:49:22;;;;;;;7.53;3.75;;;;;;;;;;5094523;28;20062;-72
2022/08/04 13:51:59;;;;;;;6.72;4.05;;;;;;;;;;5095501;28;20481;-72
2022/08/04 13:54:45;;;;;;;8.20;4.68;;;;;;;;;;5094557;28;20044;-71
2022/08/04 13:57:16;;;;;;;8.10;3.10;;;;;;;;;;5095538;28;20048;-72
2022/08/04 13:59:45;;;;;;;5.00;3.10;;;;;;;;;;5094908;28;20035;-72
2022/08/04 14:02:23;;;;;;;9.70;3.58;;;;;;;;;;5095138;28;20043;-71
2022/08/04 14:04:56;;;;;;;10.35;3.30;;;;;;;;;;5095417;28;20047;-71
2022/08/04 14:07:24;;;;;;;6.97;2.95;;;;;;;;;;5096049;28;20146;-70
2022/08/04 14:09:50;;;;;;;8.85;2.97;;;;;;;;;;5094738;28;20047;-70
2022/08/04 14:12:17;;;;;;;3.58;2.88;;;;;;;;;;5095442;28;20525;-71
2022/08/04 14:14:45;;;;;;;5.93;3.00;;;;;;;;;;5096494;28;20044;-71
2022/08/04 14:17:12;;;;;;;8.05;3.00;;;;;;;;;;5096491;28;20043;-71
2022/08/04 14:19:55;;;;;;;7.15;3.15;;;;;;;;;;5096172;28;20103;-71
2022/08/04 14:22:28;;;;;;;5.88;2.63;;;;;;;;;;5095830;28;20052;-71
2022/08/04 14:24:58;;;;;;;6.60;3.03;;;;;;;;;;5096129;28;20627;-71
2022/08/04 14:27:25;;;;;;;9.30;4.05;;;;;;;;;;5096058;28;20047;-71
2022/08/04 14:29:51;;;;;;;4.07;3.05;;;;;;;;;;5095961;28;20042;-71
2022/08/04 14:32:17;;;;;;;6.00;3.42;;;;;;;;;;5095905;28;20071;-71
2022/08/04 14:34:44;;;;;;;5.75;3.00;;;;;;;;;;5095797;28;20040;-71
2022/08/04 14:37:14;;;;;;;7.20;3.15;;;;;;;;;;5095832;28;20079;-71
2022/08/04 14:39:46;;;;;;;4.25;3.05;;;;;;;;;;5096076;28;20087;-71
2022/08/04 14:42:13;;;;;;;5.63;3.20;;;;;;;;;;5095080;28;20101;-72
2022/08/04 14:45:08;;;;;;;5.93;2.80;;;;;;;;;;5096143;28;20044;-71
2022/08/04 14:47:43;;;;;;;5.63;2.78;;;;;;;;;;5082574;28;20043;-71
2022/08/04 14:50:09;;;;;;;5.32;3.05;;;;;;;;;;5095889;28;20514;-71
2022/08/04 14:52:36;;;;;;;4.28;3.00;;;;;;;;;;5095843;28;20044;-71
2022/08/04 14:55:17;;;;;;;7.80;3.40;;;;;;;;;;5095797;28;20036;-72
2022/08/04 14:57:43;;;;;;;13.00;3.50;;;;;;;;;;5095751;28;20063;-71
2022/08/04 15:00:10;;;;;;;8.13;3.53;;;;;;;;;;5095684;28;20127;-71
2022/08/04 15:02:37;;;;;;;7.25;2.83;;;;;;;;;;5095593;28;20131;-71
2022/08/04 15:05:03;;;;;;;5.93;2.95;;;;;;;;;;5095976;28;20119;-71
2022/08/04 15:07:30;;;;;;;3.50;3.08;;;;;;;;;;5095273;28;20482;-71
2022/08/04 15:09:56;;;;;;;6.80;2.92;;;;;;;;;;5095071;28;20059;-71
2022/08/04 15:12:23;;;;;;;5.75;2.80;;;;;;;;;;5094872;28;20040;-71
2022/08/04 15:14:49;;;;;;;8.48;2.70;;;;;;;;;;5095357;28;20071;-72
2022/08/04 15:17:16;;;;;;;5.40;3.00;;;;;;;;;;5094371;28;20032;-71